sensor_id;sensor_type;location;lat;lon;timestamp;pressure;altitude;pressure_sealevel;temperature;humidity
82555;BME280;72219;48.186;11.554;2023-11-25T00:00:24;94445.66;;;16.24;43.96
82555;BME280;72219;48.186;11.554;2023-11-25T00:02:49;94426.22;;;16.07;44.57
82555;BME280;72219;48.186;11.554;2023-11-25T00:05:15;94453.66;;;16.29;44.06
82555;BME280;72219;48.186;11.554;2023-11-25T00:07:41;94447.50;;;16.17;44.23
82555;BME280;72219;48.186;11.554;2023-11-25T00:10:07;94445.84;;;16.23;44.25
82555;BME280;72219;48.186;11.554;2023-11-25T00:12:34;94436.06;;;16.11;44.26
82555;BME280;72219;48.186;11.554;2023-11-25T00:14:59;94428.41;;;16.10;44.57
82555;BME280;72219;48.186;11.554;2023-11-25T00:17:25;94439.06;;;16.15;44.55
82555;BME280;72219;48.186;11.554;2023-11-25T00:19:55;94438.69;;;16.11;44.19
82555;BME280;72219;48.186;11.554;2023-11-25T00:22:21;94445.47;;;16.12;43.75
82555;BME280;72219;48.186;11.554;2023-11-25T00:24:47;94440.28;;;16.06;44.79
82555;BME280;72219;48.186;11.554;2023-11-25T00:27:13;94443.50;;;16.08;43.83
82555;BME280;72219;48.186;11.554;2023-11-25T00:29:41;94447.53;;;15.97;45.11
82555;BME280;72219;48.186;11.554;2023-11-25T00:32:06;94453.31;;;16.06;44.06
82555;BME280;72219;48.186;11.554;2023-11-25T00:34:34;94446.13;;;15.94;45.11
82555;BME280;72219;48.186;11.554;2023-11-25T00:36:59;94434.66;;;16.09;44.58
82555;BME280;72219;48.186;11.554;2023-11-25T00:39:25;94454.72;;;16.02;44.44
82555;BME280;72219;48.186;11.554;2023-11-25T00:41:52;94446.69;;;16.03;44.50
82555;BME280;72219;48.186;11.554;2023-11-25T00:44:18;94439.06;;;16.02;44.26
82555;BME280;72219;48.186;11.554;2023-11-25T00:46:44;94439.69;;;16.04;44.53
82555;BME280;72219;48.186;11.554;2023-11-25T00:49:10;94445.13;;;16.02;44.49
82555;BME280;72219;48.186;11.554;2023-11-25T00:51:36;94440.91;;;15.94;43.92
82555;BME280;72219;48.186;11.554;2023-11-25T00:54:05;94426.47;;;15.92;44.40
82555;BME280;72219;48.186;11.554;2023-11-25T00:56:31;94447.13;;;16.00;44.26
82555;BME280;72219;48.186;11.554;2023-11-25T00:58:58;94451.53;;;16.00;44.23
82555;BME280;72219;48.186;11.554;2023-11-25T01:01:23;94440.50;;;15.91;44.57
82555;BME280;72219;48.186;11.554;2023-11-25T01:03:51;94464.59;;;16.00;44.02
82555;BME280;72219;48.186;11.554;2023-11-25T01:06:17;94450.34;;;15.95;43.54
82555;BME280;72219;48.186;11.554;2023-11-25T01:08:42;94447.53;;;16.04;44.29
82555;BME280;72219;48.186;11.554;2023-11-25T01:11:08;94457.56;;;15.93;44.30
82555;BME280;72219;48.186;11.554;2023-11-25T01:13:34;94467.78;;;15.95;44.32
82555;BME280;72219;48.186;11.554;2023-11-25T01:15:59;94470.03;;;15.85;44.53
82555;BME280;72219;48.186;11.554;2023-11-25T01:18:26;94483.66;;;15.93;44.06
82555;BME280;72219;48.186;11.554;2023-11-25T01:20:51;94466.41;;;15.86;44.50
82555;BME280;72219;48.186;11.554;2023-11-25T01:23:21;94472.03;;;15.89;44.62
82555;BME280;72219;48.186;11.554;2023-11-25T01:25:47;94468.41;;;15.77;44.33
82555;BME280;72219;48.186;11.554;2023-11-25T01:28:14;94481.47;;;15.84;44.93
82555;BME280;72219;48.186;11.554;2023-11-25T01:30:41;94481.06;;;15.87;44.17
82555;BME280;72219;48.186;11.554;2023-11-25T01:33:07;94485.28;;;15.81;44.51
82555;BME280;72219;48.186;11.554;2023-11-25T01:35:33;94501.50;;;15.76;44.15
82555;BME280;72219;48.186;11.554;2023-11-25T01:37:58;94491.25;;;15.75;44.27
82555;BME280;72219;48.186;11.554;2023-11-25T01:40:24;94511.53;;;15.73;44.17
82555;BME280;72219;48.186;11.554;2023-11-25T01:42:50;94526.38;;;15.66;44.13
82555;BME280;72219;48.186;11.554;2023-11-25T01:45:16;94520.56;;;15.63;44.44
82555;BME280;72219;48.186;11.554;2023-11-25T01:47:43;94527.16;;;15.59;44.98
82555;BME280;72219;48.186;11.554;2023-11-25T01:50:09;94513.72;;;15.56;44.88
82555;BME280;72219;48.186;11.554;2023-11-25T01:52:36;94533.81;;;15.69;44.86
82555;BME280;72219;48.186;11.554;2023-11-25T01:55:03;94537.00;;;15.64;44.84
82555;BME280;72219;48.186;11.554;2023-11-25T01:57:30;94539.59;;;15.64;44.75
82555;BME280;72219;48.186;11.554;2023-11-25T01:59:57;94548.22;;;15.58;44.13
82555;BME280;72219;48.186;11.554;2023-11-25T02:02:27;94548.47;;;15.76;44.35
82555;BME280;72219;48.186;11.554;2023-11-25T02:04:54;94557.47;;;15.74;43.69
82555;BME280;72219;48.186;11.554;2023-11-25T02:07:20;94551.44;;;15.73;44.29
82555;BME280;72219;48.186;11.554;2023-11-25T02:09:46;94571.09;;;15.69;44.51
82555;BME280;72219;48.186;11.554;2023-11-25T02:12:12;94565.50;;;15.66;43.95
82555;BME280;72219;48.186;11.554;2023-11-25T02:14:37;94551.03;;;15.56;44.14
82555;BME280;72219;48.186;11.554;2023-11-25T02:17:04;94575.09;;;15.58;44.57
82555;BME280;72219;48.186;11.554;2023-11-25T02:19:30;94575.31;;;15.57;44.76
82555;BME280;72219;48.186;11.554;2023-11-25T02:21:57;94603.78;;;15.58;44.00
82555;BME280;72219;48.186;11.554;2023-11-25T02:24:25;94568.28;;;15.57;43.81
82555;BME280;72219;48.186;11.554;2023-11-25T02:27:02;94595.53;;;15.55;44.11
82555;BME280;72219;48.186;11.554;2023-11-25T02:29:31;94586.72;;;15.49;44.37
82555;BME280;72219;48.186;11.554;2023-11-25T02:32:00;94595.97;;;15.58;44.66
82555;BME280;72219;48.186;11.554;2023-11-25T02:34:28;94597.75;;;15.51;44.31
82555;BME280;72219;48.186;11.554;2023-11-25T02:36:56;94608.00;;;15.59;44.31
82555;BME280;72219;48.186;11.554;2023-11-25T02:39:23;94604.75;;;15.44;43.92
82555;BME280;72219;48.186;11.554;2023-11-25T02:41:49;94626.63;;;15.43;44.40
82555;BME280;72219;48.186;11.554;2023-11-25T02:44:16;94611.38;;;15.53;44.19
82555;BME280;72219;48.186;11.554;2023-11-25T02:46:47;94607.56;;;15.49;44.19
82555;BME280;72219;48.186;11.554;2023-11-25T02:49:14;94609.13;;;15.37;43.86
82555;BME280;72219;48.186;11.554;2023-11-25T02:51:52;94628.06;;;15.52;44.13
82555;BME280;72219;48.186;11.554;2023-11-25T02:54:22;94627.81;;;15.40;44.04
82555;BME280;72219;48.186;11.554;2023-11-25T02:56:47;94629.03;;;15.44;43.99
82555;BME280;72219;48.186;11.554;2023-11-25T02:59:13;94630.41;;;15.40;43.90
82555;BME280;72219;48.186;11.554;2023-11-25T03:01:39;94643.84;;;15.37;44.31
82555;BME280;72219;48.186;11.554;2023-11-25T03:04:16;94645.47;;;15.45;44.55
82555;BME280;72219;48.186;11.554;2023-11-25T03:06:43;94647.03;;;15.39;43.76
82555;BME280;72219;48.186;11.554;2023-11-25T03:09:08;94642.81;;;15.38;44.26
82555;BME280;72219;48.186;11.554;2023-11-25T03:11:36;94663.31;;;15.41;44.08
82555;BME280;72219;48.186;11.554;2023-11-25T03:14:05;94665.53;;;15.44;44.53
82555;BME280;72219;48.186;11.554;2023-11-25T03:16:34;94673.13;;;15.46;44.10
82555;BME280;72219;48.186;11.554;2023-11-25T03:19:00;94689.38;;;15.41;44.49
82555;BME280;72219;48.186;11.554;2023-11-25T03:21:26;94686.34;;;15.38;44.26
82555;BME280;72219;48.186;11.554;2023-11-25T03:23:51;94692.16;;;15.40;43.67
82555;BME280;72219;48.186;11.554;2023-11-25T03:26:17;94675.66;;;15.26;44.37
82555;BME280;72219;48.186;11.554;2023-11-25T03:28:42;94711.03;;;15.42;44.19
82555;BME280;72219;48.186;11.554;2023-11-25T03:31:12;94715.59;;;15.33;44.49
82555;BME280;72219;48.186;11.554;2023-11-25T03:33:37;94724.06;;;15.42;44.02
82555;BME280;72219;48.186;11.554;2023-11-25T03:36:04;94738.47;;;15.38;43.98
82555;BME280;72219;48.186;11.554;2023-11-25T03:38:29;94748.66;;;15.33;44.07
82555;BME280;72219;48.186;11.554;2023-11-25T03:40:55;94753.84;;;15.26;43.84
82555;BME280;72219;48.186;11.554;2023-11-25T03:43:21;94764.72;;;15.29;44.27
82555;BME280;72219;48.186;11.554;2023-11-25T03:45:47;94767.50;;;15.28;44.33
82555;BME280;72219;48.186;11.554;2023-11-25T03:48:13;94771.13;;;15.34;44.29
82555;BME280;72219;48.186;11.554;2023-11-25T03:50:39;94776.75;;;15.30;44.27
82555;BME280;72219;48.186;11.554;2023-11-25T03:53:04;94776.50;;;15.25;44.27
82555;BME280;72219;48.186;11.554;2023-11-25T03:55:30;94792.75;;;15.27;44.41
82555;BME280;72219;48.186;11.554;2023-11-25T03:57:56;94800.38;;;15.29;43.97
82555;BME280;72219;48.186;11.554;2023-11-25T04:00:21;94802.34;;;15.20;44.39
82555;BME280;72219;48.186;11.554;2023-11-25T04:02:48;94793.53;;;15.21;44.14
82555;BME280;72219;48.186;11.554;2023-11-25T04:05:14;94811.38;;;15.24;44.33
82555;BME280;72219;48.186;11.554;2023-11-25T04:07:40;94821.81;;;15.24;43.63
82555;BME280;72219;48.186;11.554;2023-11-25T04:10:09;94813.00;;;15.25;44.29
82555;BME280;72219;48.186;11.554;2023-11-25T04:12:46;94830.84;;;15.28;44.04
82555;BME280;72219;48.186;11.554;2023-11-25T04:15:13;94838.63;;;15.22;44.09
82555;BME280;72219;48.186;11.554;2023-11-25T04:17:41;94848.47;;;15.26;44.02
82555;BME280;72219;48.186;11.554;2023-11-25T04:20:08;94842.91;;;15.29;44.01
82555;BME280;72219;48.186;11.554;2023-11-25T04:22:46;94847.06;;;15.24;44.17
82555;BME280;72219;48.186;11.554;2023-11-25T04:25:13;94839.16;;;15.10;43.85
82555;BME280;72219;48.186;11.554;2023-11-25T04:27:44;94855.50;;;15.26;43.98
82555;BME280;72219;48.186;11.554;2023-11-25T04:30:11;94868.66;;;15.18;44.15
82555;BME280;72219;48.186;11.554;2023-11-25T04:32:44;94878.44;;;15.16;44.19
82555;BME280;72219;48.186;11.554;2023-11-25T04:35:10;94869.66;;;15.17;44.18
82555;BME280;72219;48.186;11.554;2023-11-25T04:37:36;94861.59;;;15.11;43.66
82555;BME280;72219;48.186;11.554;2023-11-25T04:40:05;94883.00;;;15.07;43.64
82555;BME280;72219;48.186;11.554;2023-11-25T04:42:32;94879.88;;;15.18;44.14
82555;BME280;72219;48.186;11.554;2023-11-25T04:44:59;94886.84;;;15.11;44.25
82555;BME280;72219;48.186;11.554;2023-11-25T04:47:30;94897.72;;;15.14;43.54
82555;BME280;72219;48.186;11.554;2023-11-25T04:49:55;94886.34;;;15.01;43.75
82555;BME280;72219;48.186;11.554;2023-11-25T04:52:21;94891.81;;;15.06;43.79
82555;BME280;72219;48.186;11.554;2023-11-25T04:54:46;94904.66;;;15.07;44.02
82555;BME280;72219;48.186;11.554;2023-11-25T04:57:14;94913.69;;;15.11;43.78
82555;BME280;72219;48.186;11.554;2023-11-25T04:59:39;94916.69;;;15.08;44.25
82555;BME280;72219;48.186;11.554;2023-11-25T05:02:05;94920.84;;;15.03;44.15
82555;BME280;72219;48.186;11.554;2023-11-25T05:04:30;94912.03;;;15.04;44.22
82555;BME280;72219;48.186;11.554;2023-11-25T05:06:59;94916.69;;;15.08;43.85
82555;BME280;72219;48.186;11.554;2023-11-25T05:09:24;94921.03;;;15.01;43.95
82555;BME280;72219;48.186;11.554;2023-11-25T05:11:52;94909.38;;;14.97;44.28
82555;BME280;72219;48.186;11.554;2023-11-25T05:14:19;94929.47;;;15.03;43.96
82555;BME280;72219;48.186;11.554;2023-11-25T05:16:45;94933.94;;;15.09;43.98
82555;BME280;72219;48.186;11.554;2023-11-25T05:19:12;94947.69;;;15.03;43.83
82555;BME280;72219;48.186;11.554;2023-11-25T05:21:38;94940.97;;;15.09;43.32
82555;BME280;72219;48.186;11.554;2023-11-25T05:24:04;94956.16;;;15.05;44.09
82555;BME280;72219;48.186;11.554;2023-11-25T05:26:31;94950.69;;;15.00;43.75
82555;BME280;72219;48.186;11.554;2023-11-25T05:28:57;94963.19;;;14.90;44.05
82555;BME280;72219;48.186;11.554;2023-11-25T05:31:25;94978.91;;;14.96;43.95
82555;BME280;72219;48.186;11.554;2023-11-25T05:33:50;94985.53;;;14.99;43.70
82555;BME280;72219;48.186;11.554;2023-11-25T05:36:17;94992.38;;;15.00;43.71
82555;BME280;72219;48.186;11.554;2023-11-25T05:38:43;94998.13;;;14.95;44.08
82555;BME280;72219;48.186;11.554;2023-11-25T05:41:09;94990.94;;;14.97;43.99
82555;BME280;72219;48.186;11.554;2023-11-25T05:43:37;94995.69;;;14.94;43.52
82555;BME280;72219;48.186;11.554;2023-11-25T05:46:04;94996.63;;;14.86;43.93
82555;BME280;72219;48.186;11.554;2023-11-25T05:48:30;95004.59;;;15.00;43.59
82555;BME280;72219;48.186;11.554;2023-11-25T05:50:56;95009.34;;;14.96;43.55
82555;BME280;72219;48.186;11.554;2023-11-25T05:53:23;95012.94;;;14.95;44.03
82555;BME280;72219;48.186;11.554;2023-11-25T05:55:50;94994.38;;;14.83;44.02
82555;BME280;72219;48.186;11.554;2023-11-25T05:58:15;95004.56;;;14.78;44.00
82555;BME280;72219;48.186;11.554;2023-11-25T06:00:41;95017.09;;;14.89;44.02
82555;BME280;72219;48.186;11.554;2023-11-25T06:03:07;94998.78;;;14.83;43.45
82555;BME280;72219;48.186;11.554;2023-11-25T06:05:32;95007.50;;;14.75;44.31
82555;BME280;72219;48.186;11.554;2023-11-25T06:07:58;95003.44;;;14.87;44.15
82555;BME280;72219;48.186;11.554;2023-11-25T06:10:24;94993.97;;;14.79;44.12
82555;BME280;72219;48.186;11.554;2023-11-25T06:12:49;95001.88;;;14.71;44.13
82555;BME280;72219;48.186;11.554;2023-11-25T06:15:15;94998.72;;;14.76;43.71
82555;BME280;72219;48.186;11.554;2023-11-25T06:17:41;95007.69;;;14.73;44.13
82555;BME280;72219;48.186;11.554;2023-11-25T06:20:09;95011.91;;;14.74;44.09
82555;BME280;72219;48.186;11.554;2023-11-25T06:22:34;94998.25;;;14.72;44.03
82555;BME280;72219;48.186;11.554;2023-11-25T06:25:01;95005.91;;;14.74;44.11
82555;BME280;72219;48.186;11.554;2023-11-25T06:27:30;95008.53;;;14.74;43.90
82555;BME280;72219;48.186;11.554;2023-11-25T06:29:57;95016.84;;;14.84;43.75
82555;BME280;72219;48.186;11.554;2023-11-25T06:32:23;95005.91;;;14.74;44.46
82555;BME280;72219;48.186;11.554;2023-11-25T06:34:54;95012.63;;;14.68;43.75
82555;BME280;72219;48.186;11.554;2023-11-25T06:37:23;95003.91;;;14.76;43.80
82555;BME280;72219;48.186;11.554;2023-11-25T06:39:49;95013.97;;;14.79;43.89
82555;BME280;72219;48.186;11.554;2023-11-25T06:42:14;95016.75;;;14.77;43.16
82555;BME280;72219;48.186;11.554;2023-11-25T06:44:40;95020.09;;;14.71;43.59
82555;BME280;72219;48.186;11.554;2023-11-25T06:47:07;95024.84;;;14.68;43.80
82555;BME280;72219;48.186;11.554;2023-11-25T06:49:33;95024.69;;;14.69;43.81
82555;BME280;72219;48.186;11.554;2023-11-25T06:52:00;95029.63;;;14.64;44.07
82555;BME280;72219;48.186;11.554;2023-11-25T06:54:26;95035.28;;;14.68;44.27
82555;BME280;72219;48.186;11.554;2023-11-25T06:56:51;95032.03;;;14.66;43.85
82555;BME280;72219;48.186;11.554;2023-11-25T06:59:17;95028.91;;;14.70;44.08
82555;BME280;72219;48.186;11.554;2023-11-25T07:01:43;95017.50;;;14.71;43.12
82555;BME280;72219;48.186;11.554;2023-11-25T07:04:08;95026.75;;;14.74;43.90
82555;BME280;72219;48.186;11.554;2023-11-25T07:06:33;95025.84;;;14.67;43.60
82555;BME280;72219;48.186;11.554;2023-11-25T07:08:59;95020.91;;;14.72;43.68
82555;BME280;72219;48.186;11.554;2023-11-25T07:11:29;95021.69;;;14.72;43.46
82555;BME280;72219;48.186;11.554;2023-11-25T07:13:56;95026.00;;;14.80;43.32
82555;BME280;72219;48.186;11.554;2023-11-25T07:16:23;95028.59;;;14.80;43.46
82555;BME280;72219;48.186;11.554;2023-11-25T07:18:49;95028.53;;;14.73;43.21
82555;BME280;72219;48.186;11.554;2023-11-25T07:21:15;95029.63;;;14.64;43.99
82555;BME280;72219;48.186;11.554;2023-11-25T07:23:41;95027.28;;;14.69;43.54
82555;BME280;72219;48.186;11.554;2023-11-25T07:26:08;95024.31;;;14.72;43.89
82555;BME280;72219;48.186;11.554;2023-11-25T07:28:37;95031.22;;;14.80;43.64
82555;BME280;72219;48.186;11.554;2023-11-25T07:31:04;95023.13;;;14.75;43.51
82555;BME280;72219;48.186;11.554;2023-11-25T07:33:32;95018.22;;;14.65;43.23
82555;BME280;72219;48.186;11.554;2023-11-25T07:35:59;95015.44;;;14.67;43.78
82555;BME280;72219;48.186;11.554;2023-11-25T07:38:25;95020.97;;;14.78;43.15
82555;BME280;72219;48.186;11.554;2023-11-25T07:40:51;95004.47;;;14.71;43.16
82555;BME280;72219;48.186;11.554;2023-11-25T07:43:16;95012.63;;;14.68;43.19
82555;BME280;72219;48.186;11.554;2023-11-25T07:45:42;95016.75;;;14.77;42.10
82555;BME280;72219;48.186;11.554;2023-11-25T07:48:08;95005.00;;;14.67;43.27
82555;BME280;72219;48.186;11.554;2023-11-25T07:50:35;95018.84;;;14.82;43.19
82555;BME280;72219;48.186;11.554;2023-11-25T07:53:02;95017.31;;;14.73;43.18
82555;BME280;72219;48.186;11.554;2023-11-25T07:55:29;95017.59;;;14.78;43.43
82555;BME280;72219;48.186;11.554;2023-11-25T07:57:55;95011.03;;;14.82;43.18
82555;BME280;72219;48.186;11.554;2023-11-25T08:00:20;95010.81;;;14.84;43.03
82555;BME280;72219;48.186;11.554;2023-11-25T08:02:51;95014.16;;;14.77;42.94
82555;BME280;72219;48.186;11.554;2023-11-25T08:05:22;95022.03;;;14.84;43.16
82555;BME280;72219;48.186;11.554;2023-11-25T08:07:52;95010.75;;;14.77;43.16
82555;BME280;72219;48.186;11.554;2023-11-25T08:10:19;95019.50;;;14.91;43.04
82555;BME280;72219;48.186;11.554;2023-11-25T08:12:46;95017.97;;;14.96;42.53
82555;BME280;72219;48.186;11.554;2023-11-25T08:15:14;95033.06;;;15.01;42.34
82555;BME280;72219;48.186;11.554;2023-11-25T08:17:46;95031.19;;;14.95;42.56
82555;BME280;72219;48.186;11.554;2023-11-25T08:20:12;95041.88;;;15.00;42.11
82555;BME280;72219;48.186;11.554;2023-11-25T08:22:38;95024.63;;;14.99;42.42
82555;BME280;72219;48.186;11.554;2023-11-25T08:25:05;95031.25;;;15.02;42.40
82555;BME280;72219;48.186;11.554;2023-11-25T08:27:33;95030.19;;;14.96;42.36
82555;BME280;72219;48.186;11.554;2023-11-25T08:30:06;95029.41;;;14.95;42.35
82555;BME280;72219;48.186;11.554;2023-11-25T08:32:34;95025.59;;;14.98;42.27
82555;BME280;72219;48.186;11.554;2023-11-25T08:35:01;95036.75;;;14.92;42.44
82555;BME280;72219;48.186;11.554;2023-11-25T08:37:26;95033.88;;;15.02;42.29
82555;BME280;72219;48.186;11.554;2023-11-25T08:39:54;95040.31;;;15.06;42.20
82555;BME280;72219;48.186;11.554;2023-11-25T08:42:21;95029.63;;;15.01;42.20
82555;BME280;72219;48.186;11.554;2023-11-25T08:44:50;95037.09;;;15.04;41.95
82555;BME280;72219;48.186;11.554;2023-11-25T08:47:17;95046.78;;;15.10;42.12
82555;BME280;72219;48.186;11.554;2023-11-25T08:49:43;95051.50;;;15.00;43.00
82555;BME280;72219;48.186;11.554;2023-11-25T08:52:09;95059.47;;;14.98;43.70
82555;BME280;72219;48.186;11.554;2023-11-25T08:54:34;95053.47;;;14.97;43.51
82555;BME280;72219;48.186;11.554;2023-11-25T08:57:03;95050.31;;;14.87;43.72
82555;BME280;72219;48.186;11.554;2023-11-25T08:59:28;95072.25;;;14.93;43.95
82555;BME280;72219;48.186;11.554;2023-11-25T09:01:56;95072.16;;;15.01;43.38
82555;BME280;72219;48.186;11.554;2023-11-25T09:04:23;95072.34;;;15.00;43.07
82555;BME280;72219;48.186;11.554;2023-11-25T09:06:52;95086.06;;;15.08;43.12
82555;BME280;72219;48.186;11.554;2023-11-25T09:09:19;95081.81;;;15.07;43.43
82555;BME280;72219;48.186;11.554;2023-11-25T09:11:46;95080.16;;;15.00;42.90
82555;BME280;72219;48.186;11.554;2023-11-25T09:14:13;95085.63;;;14.90;43.27
82555;BME280;72219;48.186;11.554;2023-11-25T09:16:41;95089.25;;;14.89;43.68
82555;BME280;72219;48.186;11.554;2023-11-25T09:19:08;95088.59;;;14.87;42.55
82555;BME280;72219;48.186;11.554;2023-11-25T09:21:33;95089.50;;;14.79;44.24
82555;BME280;72219;48.186;11.554;2023-11-25T09:24:00;95080.09;;;14.78;43.64
82555;BME280;72219;48.186;11.554;2023-11-25T09:26:25;95074.41;;;14.74;43.95
82555;BME280;72219;48.186;11.554;2023-11-25T09:28:52;95103.44;;;14.86;44.34
82555;BME280;72219;48.186;11.554;2023-11-25T09:31:19;95098.56;;;14.83;44.36
82555;BME280;72219;48.186;11.554;2023-11-25T09:33:45;95097.06;;;14.89;43.42
82555;BME280;72219;48.186;11.554;2023-11-25T09:36:10;95107.47;;;14.89;43.10
82555;BME280;72219;48.186;11.554;2023-11-25T09:38:36;95101.53;;;14.80;43.45
82555;BME280;72219;48.186;11.554;2023-11-25T09:41:02;95095.34;;;14.81;43.63
82555;BME280;72219;48.186;11.554;2023-11-25T09:43:28;95107.91;;;14.92;43.77
82555;BME280;72219;48.186;11.554;2023-11-25T09:45:55;95105.75;;;14.96;43.30
82555;BME280;72219;48.186;11.554;2023-11-25T09:48:21;95106.13;;;14.93;43.53
82555;BME280;72219;48.186;11.554;2023-11-25T09:50:50;95095.88;;;14.91;43.40
82555;BME280;72219;48.186;11.554;2023-11-25T09:53:29;95109.44;;;14.87;43.31
82555;BME280;72219;48.186;11.554;2023-11-25T09:56:05;95101.81;;;14.85;43.33
82555;BME280;72219;48.186;11.554;2023-11-25T09:58:36;95104.31;;;14.93;43.48
82555;BME280;72219;48.186;11.554;2023-11-25T10:01:02;95102.34;;;14.95;42.89
82555;BME280;72219;48.186;11.554;2023-11-25T10:03:35;95092.56;;;14.83;43.09
82555;BME280;72219;48.186;11.554;2023-11-25T10:06:02;95105.19;;;15.01;42.88
82555;BME280;72219;48.186;11.554;2023-11-25T10:08:28;95095.94;;;14.98;42.88
82555;BME280;72219;48.186;11.554;2023-11-25T10:11:00;95109.78;;;14.99;42.50
82555;BME280;72219;48.186;11.554;2023-11-25T10:13:31;95109.03;;;15.05;42.55
82555;BME280;72219;48.186;11.554;2023-11-25T10:15:57;95099.19;;;14.85;42.75
82555;BME280;72219;48.186;11.554;2023-11-25T10:18:22;95105.47;;;14.91;42.39
82555;BME280;72219;48.186;11.554;2023-11-25T10:20:49;95110.31;;;14.94;42.56
82555;BME280;72219;48.186;11.554;2023-11-25T10:23:21;95104.22;;;14.72;43.33
82555;BME280;72219;48.186;11.554;2023-11-25T10:25:46;95108.28;;;14.74;42.94
82555;BME280;72219;48.186;11.554;2023-11-25T10:28:12;95113.84;;;14.86;42.94
82555;BME280;72219;48.186;11.554;2023-11-25T10:30:40;95101.81;;;14.70;43.03
82555;BME280;72219;48.186;11.554;2023-11-25T10:33:07;95108.72;;;14.78;42.88
82555;BME280;72219;48.186;11.554;2023-11-25T10:35:34;95101.25;;;14.75;42.65
82555;BME280;72219;48.186;11.554;2023-11-25T10:37:59;95092.75;;;14.66;42.99
82555;BME280;72219;48.186;11.554;2023-11-25T10:40:25;95097.22;;;14.72;43.24
82555;BME280;72219;48.186;11.554;2023-11-25T10:42:53;95110.00;;;14.67;42.92
82555;BME280;72219;48.186;11.554;2023-11-25T10:45:22;95099.56;;;14.67;43.42
82555;BME280;72219;48.186;11.554;2023-11-25T10:47:52;95086.53;;;14.52;43.28
82555;BME280;72219;48.186;11.554;2023-11-25T10:50:18;95102.63;;;14.71;43.02
82555;BME280;72219;48.186;11.554;2023-11-25T10:52:46;95088.03;;;14.61;43.24
82555;BME280;72219;48.186;11.554;2023-11-25T10:55:12;95092.63;;;14.59;43.44
82555;BME280;72219;48.186;11.554;2023-11-25T10:57:37;95093.72;;;14.65;42.95
82555;BME280;72219;48.186;11.554;2023-11-25T11:00:03;95096.97;;;14.82;42.67
82555;BME280;72219;48.186;11.554;2023-11-25T11:02:43;95099.31;;;14.77;42.85
82555;BME280;72219;48.186;11.554;2023-11-25T11:05:11;95090.75;;;14.83;42.83
82555;BME280;72219;48.186;11.554;2023-11-25T11:07:47;95093.34;;;14.83;42.64
82555;BME280;72219;48.186;11.554;2023-11-25T11:10:25;95094.19;;;14.84;41.96
82555;BME280;72219;48.186;11.554;2023-11-25T11:13:00;95090.41;;;14.71;41.96
82555;BME280;72219;48.186;11.554;2023-11-25T11:15:30;95089.25;;;14.74;42.84
82555;BME280;72219;48.186;11.554;2023-11-25T11:18:19;95086.28;;;14.77;42.72
82555;BME280;72219;48.186;11.554;2023-11-25T11:20:48;95077.91;;;14.82;42.12
82555;BME280;72219;48.186;11.554;2023-11-25T11:23:16;95082.06;;;14.76;42.73
82555;BME280;72219;48.186;11.554;2023-11-25T11:33:40;95062.53;;;14.57;42.66
82555;BME280;72219;48.186;11.554;2023-11-25T11:36:06;95070.00;;;14.60;42.84
82555;BME280;72219;48.186;11.554;2023-11-25T11:38:31;95074.34;;;14.68;43.17
82555;BME280;72219;48.186;11.554;2023-11-25T11:40:57;95074.94;;;14.70;43.07
82555;BME280;72219;48.186;11.554;2023-11-25T11:43:23;95063.91;;;14.68;42.57
82555;BME280;72219;48.186;11.554;2023-11-25T11:45:49;95051.16;;;14.58;43.02
82555;BME280;72219;48.186;11.554;2023-11-25T11:48:14;95055.81;;;14.62;42.87
82555;BME280;72219;48.186;11.554;2023-11-25T11:50:41;95062.28;;;14.67;42.73
82555;BME280;72219;48.186;11.554;2023-11-25T11:55:51;95048.00;;;14.62;43.15
82555;BME280;72219;48.186;11.554;2023-11-25T11:58:24;95048.28;;;14.68;42.72
82555;BME280;72219;48.186;11.554;2023-11-25T12:03:32;95037.66;;;14.84;42.22
82555;BME280;72219;48.186;11.554;2023-11-25T12:05:58;95045.22;;;14.79;42.42
82555;BME280;72219;48.186;11.554;2023-11-25T12:08:24;95050.50;;;14.86;42.34
82555;BME280;72219;48.186;11.554;2023-11-25T12:10:50;95060.13;;;14.85;42.61
82555;BME280;72219;48.186;11.554;2023-11-25T12:15:55;95037.56;;;14.92;42.00
82555;BME280;72219;48.186;11.554;2023-11-25T12:18:32;95033.25;;;15.00;42.10
82555;BME280;72219;48.186;11.554;2023-11-25T12:20:58;95018.53;;;14.92;42.08
82555;BME280;72219;48.186;11.554;2023-11-25T12:23:31;95013.31;;;14.92;42.44
82555;BME280;72219;48.186;11.554;2023-11-25T12:25:57;95013.41;;;14.99;42.06
82555;BME280;72219;48.186;11.554;2023-11-25T12:28:24;95006.31;;;14.92;41.75
82555;BME280;72219;48.186;11.554;2023-11-25T12:30:50;95010.53;;;14.93;42.07
82555;BME280;72219;48.186;11.554;2023-11-25T12:33:19;95002.22;;;15.05;42.01
82555;BME280;72219;48.186;11.554;2023-11-25T12:35:46;94999.72;;;14.96;42.13
82555;BME280;72219;48.186;11.554;2023-11-25T12:38:12;95001.81;;;15.01;41.96
82555;BME280;72219;48.186;11.554;2023-11-25T12:40:39;94992.09;;;14.95;41.32
82555;BME280;72219;48.186;11.554;2023-11-25T12:43:08;94999.19;;;15.01;41.78
82555;BME280;72219;48.186;11.554;2023-11-25T12:45:40;95004.75;;;14.98;42.05
82555;BME280;72219;48.186;11.554;2023-11-25T12:48:07;94996.16;;;14.97;41.93
82555;BME280;72219;48.186;11.554;2023-11-25T12:50:34;94994.00;;;15.01;41.82
82555;BME280;72219;48.186;11.554;2023-11-25T12:53:10;95004.66;;;15.06;41.58
82555;BME280;72219;48.186;11.554;2023-11-25T12:55:43;94994.53;;;14.96;41.91
82555;BME280;72219;48.186;11.554;2023-11-25T12:58:14;94987.09;;;14.93;42.20
82555;BME280;72219;48.186;11.554;2023-11-25T13:00:45;94992.59;;;14.84;42.13
82555;BME280;72219;48.186;11.554;2023-11-25T13:03:11;94986.41;;;14.70;42.42
82555;BME280;72219;48.186;11.554;2023-11-25T13:05:36;94992.72;;;14.75;42.40